Time;durP1;ratioP1;P1;durP2;ratioP2;P2;SDS_P1;SDS_P2;PMS_P1;PMS_P2;Temp;Humidity;BMP_temperature;BMP_pressure;BME280_temperature;BME280_humidity;BME280_pressure;Samples;Min_cycle;Max_cycle;Signal;HPM_P1;HPM_P2
2022/02/08 00:00:12;;;;;;;1.88;0.82;;;;;;;3.47;100.00;102127.78;6247998;28;20052;-81
2022/02/08 00:03:13;;;;;;;4.95;0.68;;;;;;;3.47;100.00;102125.19;6248472;28;20408;-81
2022/02/08 00:06:32;;;;;;;5.63;0.47;;;;;;;3.50;100.00;102132.97;6248616;28;20057;-82
2022/02/08 00:09:33;;;;;;;2.53;0.65;;;;;;;3.50;100.00;102124.31;6248404;28;20433;-81
2022/02/08 00:12:35;;;;;;;0.70;0.50;;;;;;;3.51;100.00;102126.06;6264946;28;20124;-82
2022/02/08 00:15:37;;;;;;;3.42;0.55;;;;;;;3.49;100.00;102117.38;6273105;28;20056;-81
2022/02/08 00:18:39;;;;;;;0.57;0.47;;;;;;;3.47;100.00;102122.59;6272780;28;20049;-81
2022/02/08 00:21:40;;;;;;;1.52;0.52;;;;;;;3.47;100.00;102119.13;6272810;28;20057;-81
2022/02/08 00:24:42;;;;;;;2.78;0.60;;;;;;;3.45;100.00;102121.72;6272738;28;20048;-81
2022/02/08 00:27:43;;;;;;;2.28;0.60;;;;;;;3.44;100.00;102106.13;6272056;28;20057;-81
2022/02/08 00:30:46;;;;;;;2.90;0.30;;;;;;;3.43;100.00;102114.78;6270968;28;20500;-81
2022/02/08 00:33:47;;;;;;;1.85;0.57;;;;;;;3.43;100.00;102114.78;6267806;28;20634;-81
2022/02/08 00:36:48;;;;;;;4.82;2.47;;;;;;;3.41;100.00;102108.75;6272574;28;20072;-81
2022/02/08 00:39:50;;;;;;;1.60;0.80;;;;;;;3.42;100.00;102100.09;6272385;28;20060;-81
2022/02/08 00:42:51;;;;;;;1.88;0.80;;;;;;;3.41;100.00;102106.16;6272631;28;20074;-80
2022/02/08 00:45:59;;;;;;;0.43;0.22;;;;;;;3.41;100.00;102090.56;6272238;28;20041;-81
2022/02/08 00:49:02;;;;;;;0.45;0.45;;;;;;;3.42;100.00;102087.09;6272369;28;20045;-81
2022/02/08 00:52:10;;;;;;;0.57;0.20;;;;;;;3.40;100.00;102081.88;6271958;28;20056;-82
2022/02/08 00:55:13;;;;;;;0.43;0.32;;;;;;;3.43;100.00;102083.63;6272001;28;20049;-81
2022/02/08 00:58:14;;;;;;;2.53;0.50;;;;;;;3.45;100.00;102076.66;6272389;28;20051;-81
2022/02/08 01:01:17;;;;;;;10.98;0.60;;;;;;;3.44;100.00;102072.34;6271991;28;20053;-81
2022/02/08 01:04:18;;;;;;;0.70;0.68;;;;;;;3.46;100.00;102061.09;6271354;28;20045;-81
2022/02/08 01:07:20;;;;;;;5.65;0.60;;;;;;;3.50;100.00;102056.75;6272267;28;20056;-79
2022/02/08 01:10:23;;;;;;;0.65;0.52;;;;;;;3.51;100.00;102050.69;6271808;28;20052;-81
2022/02/08 01:13:25;;;;;;;1.10;0.43;;;;;;;3.52;100.00;102058.47;6271862;28;20056;-81
2022/02/08 01:16:28;;;;;;;7.28;1.05;;;;;;;3.56;100.00;102065.38;6272256;28;20056;-81
2022/02/08 01:19:30;;;;;;;1.75;0.70;;;;;;;3.62;100.00;102058.44;6266857;28;20130;-81
2022/02/08 01:22:31;;;;;;;0.73;0.50;;;;;;;3.62;100.00;102050.63;6271975;28;20045;-80
2022/02/08 01:25:38;;;;;;;1.73;0.73;;;;;;;3.58;100.00;102052.38;6272069;28;20041;-81
2022/02/08 01:28:47;;;;;;;2.42;0.75;;;;;;;3.62;100.00;102048.03;6272342;28;20053;-81
2022/02/08 01:31:51;;;;;;;4.65;1.17;;;;;;;3.60;100.00;102049.78;6266838;28;20042;-81
2022/02/08 01:35:03;;;;;;;9.38;0.80;;;;;;;3.59;100.00;102053.22;6247332;28;20481;-82
2022/02/08 01:38:09;;;;;;;3.70;0.60;;;;;;;3.63;100.00;102052.34;6247688;28;20519;-81
2022/02/08 01:41:27;;;;;;;0.77;0.63;;;;;;;3.68;100.00;102050.59;6250983;28;20053;-80
2022/02/08 01:44:34;;;;;;;3.25;0.65;;;;;;;3.69;100.00;102061.00;6251067;28;20516;-81
2022/02/08 01:47:46;;;;;;;3.30;0.70;;;;;;;3.71;100.00;102054.06;6251190;28;20045;-82
2022/02/08 01:50:48;;;;;;;1.35;0.80;;;;;;;3.77;100.00;102054.06;6251112;28;20515;-81
2022/02/08 01:53:49;;;;;;;3.22;0.70;;;;;;;3.83;100.00;102054.91;6251329;28;20042;-80
2022/02/08 01:56:52;;;;;;;10.98;0.80;;;;;;;3.84;100.00;102051.41;6251277;28;20060;-82
2022/02/08 01:59:54;;;;;;;0.68;0.60;;;;;;;3.87;100.00;102041.00;6250834;28;20049;-81
2022/02/08 02:02:57;;;;;;;4.78;0.88;;;;;;;3.83;100.00;102032.34;6261723;28;20053;-81
2022/02/08 02:05:58;;;;;;;2.50;1.17;;;;;;;3.81;100.00;102040.19;6275891;28;20079;-80
2022/02/08 02:08:59;;;;;;;2.90;1.10;;;;;;;3.88;100.00;102029.72;6275847;28;20049;-81
2022/02/08 02:12:01;;;;;;;2.20;1.13;;;;;;;3.86;100.00;102034.94;6274948;28;20049;-82
2022/02/08 02:15:05;;;;;;;6.63;1.00;;;;;;;3.94;100.00;102034.91;6275552;28;20049;-81
2022/02/08 02:18:07;;;;;;;5.25;0.90;;;;;;;3.92;100.00;102041.84;6275603;28;20045;-81
2022/02/08 02:21:09;;;;;;;1.65;0.80;;;;;;;3.94;100.00;102038.34;6274727;28;20419;-81
2022/02/08 02:24:12;;;;;;;2.92;1.38;;;;;;;3.92;100.00;102029.72;6275154;28;20068;-82
2022/02/08 02:27:13;;;;;;;14.57;1.55;;;;;;;3.91;100.00;102033.19;6274905;28;20055;-80
2022/02/08 02:30:14;;;;;;;3.25;0.93;;;;;;;3.76;100.00;102033.25;6274523;28;20052;-81
2022/02/08 02:33:16;;;;;;;10.27;1.95;;;;;;;3.71;100.00;102025.47;6270062;28;20052;-80
2022/02/08 02:36:17;;;;;;;2.35;1.60;;;;;;;3.60;100.00;102022.06;6268655;28;20057;-81
2022/02/08 02:39:23;;;;;;;3.90;1.45;;;;;;;3.55;100.00;102018.63;6274264;28;20048;-80
2022/02/08 02:42:26;;;;;;;2.95;1.75;;;;;;;3.51;100.00;102017.75;6274847;28;20052;-80
2022/02/08 02:45:28;;;;;;;4.53;2.40;;;;;;;3.54;100.00;102001.28;6274701;28;20115;-81
2022/02/08 02:48:30;;;;;;;2.83;1.33;;;;;;;3.52;100.00;102005.63;6274415;28;20060;-81
2022/02/08 02:51:33;;;;;;;6.72;1.35;;;;;;;3.52;100.00;102003.88;6273526;28;20528;-81
2022/02/08 02:54:36;;;;;;;2.33;1.48;;;;;;;3.53;100.00;101996.94;6275735;28;20123;-80
2022/02/08 02:57:37;;;;;;;5.78;2.45;;;;;;;3.54;100.00;101994.38;6274500;28;20056;-80
2022/02/08 03:00:43;;;;;;;8.07;2.10;;;;;;;3.60;100.00;102003.88;6274044;28;20443;-81
2022/02/08 03:03:54;;;;;;;3.78;1.83;;;;;;;3.64;100.00;102002.97;6273140;28;20036;-82
2022/02/08 03:20:12;;;;;;;10.15;2.53;;;;;;;3.81;100.00;102001.19;6264289;28;20455;-81
2022/02/08 03:23:14;;;;;;;2.85;2.00;;;;;;;3.85;100.00;101999.41;6274063;28;20048;-81
2022/02/08 03:26:16;;;;;;;4.82;2.72;;;;;;;3.92;100.00;102013.25;6274411;28;20052;-80
2022/02/08 03:29:18;;;;;;;6.85;2.30;;;;;;;3.95;100.00;101998.50;6273458;28;20052;-81
2022/02/08 03:32:20;;;;;;;7.00;2.40;;;;;;;3.96;100.00;102001.97;6273209;28;20403;-81
2022/02/08 03:35:22;;;;;;;6.97;2.75;;;;;;;3.99;100.00;102002.78;6256100;28;20041;-81
2022/02/08 03:38:30;;;;;;;7.28;2.90;;;;;;;4.04;100.00;102003.66;6248495;28;20049;-81
2022/02/08 03:41:40;;;;;;;9.20;3.08;;;;;;;4.07;100.00;101997.53;6248165;28;20493;-81
2022/02/08 03:44:45;;;;;;;6.18;2.65;;;;;;;4.07;100.00;102001.00;6248496;28;20050;-81
2022/02/08 03:47:46;;;;;;;2.95;2.33;;;;;;;4.12;100.00;102002.72;6247941;28;20054;-81
2022/02/08 03:50:52;;;;;;;6.65;2.50;;;;;;;4.12;100.00;102007.91;6248130;28;20060;-81
2022/02/08 03:53:54;;;;;;;6.60;2.78;;;;;;;4.16;100.00;102002.69;6248773;28;20077;-81
2022/02/08 03:56:57;;;;;;;8.23;2.65;;;;;;;4.17;100.00;102014.81;6248076;28;20432;-81
2022/02/08 03:59:58;;;;;;;8.25;2.50;;;;;;;4.14;100.00;102014.84;6247647;28;20485;-81
2022/02/08 04:02:59;;;;;;;5.55;2.58;;;;;;;4.09;100.00;102008.81;6248239;28;20065;-81
2022/02/08 04:06:02;;;;;;;5.10;2.13;;;;;;;4.11;100.00;102001.84;6248107;28;20115;-81
2022/02/08 04:09:06;;;;;;;4.65;2.08;;;;;;;4.05;100.00;102005.38;6248524;28;20049;-81
2022/02/08 04:12:16;;;;;;;4.80;2.58;;;;;;;4.06;100.00;102003.63;6248087;28;20077;-81
2022/02/08 04:15:33;;;;;;;5.30;2.75;;;;;;;4.01;100.00;101993.25;6248285;28;20041;-81
2022/02/08 04:18:46;;;;;;;7.25;4.03;;;;;;;4.00;100.00;102001.94;6247989;28;20053;-81
2022/02/08 04:32:11;;;;;;;9.13;4.18;;;;;;;4.05;100.00;102002.75;6255042;28;20053;-81
2022/02/08 04:38:40;;;;;;;8.57;3.67;;;;;;;4.07;100.00;101989.75;6263633;28;20048;-81
2022/02/08 04:41:43;;;;;;;5.10;2.72;;;;;;;4.10;100.00;101987.13;6272623;28;20057;-81
2022/02/08 04:44:51;;;;;;;7.07;3.03;;;;;;;4.12;100.00;101985.38;6257913;28;20037;-81
2022/02/08 04:48:04;;;;;;;10.63;3.33;;;;;;;4.14;100.00;101986.22;6272335;28;20049;-81
2022/02/08 04:51:13;;;;;;;8.93;3.95;;;;;;;4.17;100.00;101988.78;6272073;28;20130;-80
2022/02/08 04:54:21;;;;;;;;;;;;;;;4.20;100.00;101991.38;6271905;28;20439;-80
2022/02/08 04:57:28;;;;;;;6.18;2.63;;;;;;;4.19;100.00;102000.06;6247444;28;19927;-80
2022/02/08 05:00:37;;;;;;;6.18;3.22;;;;;;;4.23;100.00;101987.91;6257175;28;20084;-80
2022/02/08 05:27:35;;;;;;;6.03;3.35;;;;;;;4.41;100.00;101955.69;6251098;28;20106;-80
2022/02/08 05:37:37;;;;;;;6.90;2.97;;;;;;;4.54;100.00;101963.38;6250765;28;20049;-80
2022/02/08 05:47:19;;;;;;;7.40;3.45;;;;;;;4.65;100.00;101950.25;6275148;28;20397;-80
2022/02/08 05:50:38;;;;;;;9.82;3.22;;;;;;;4.66;100.00;101954.56;6260899;28;20042;-80
2022/02/08 05:53:45;;;;;;;6.80;3.72;;;;;;;4.73;100.00;101943.22;6250962;28;20092;-80
2022/02/08 05:56:48;;;;;;;4.05;2.80;;;;;;;4.77;100.00;101941.47;6250409;28;20049;-82
2022/02/08 05:59:51;;;;;;;4.93;2.70;;;;;;;4.74;100.00;101937.13;6256176;28;20045;-82
2022/02/08 06:02:54;;;;;;;11.20;4.63;;;;;;;4.79;100.00;101950.97;6267942;28;20126;-79
2022/02/08 06:05:57;;;;;;;16.65;4.97;;;;;;;4.90;100.00;101940.44;6270067;28;20044;-80
2022/02/08 06:09:00;;;;;;;13.75;4.10;;;;;;;4.84;100.00;101943.97;6262175;28;20056;-79
2022/02/08 06:12:01;;;;;;;7.00;3.75;;;;;;;4.82;100.00;101948.34;6274236;28;20053;-80
2022/02/08 06:15:07;;;;;;;11.07;4.47;;;;;;;4.81;100.00;101941.41;6271671;28;20046;-80
2022/02/08 06:18:10;;;;;;;10.38;4.30;;;;;;;4.86;100.00;101941.38;6273799;28;20045;-80
2022/02/08 06:21:13;;;;;;;7.13;3.72;;;;;;;4.86;100.00;101938.75;6266153;28;20056;-80
2022/02/08 06:24:14;;;;;;;9.40;4.45;;;;;;;4.89;100.00;101932.66;6262979;28;20485;-80
2022/02/08 06:27:15;;;;;;;9.30;3.65;;;;;;;4.93;100.00;101926.53;6263823;28;20068;-80
2022/02/08 06:30:18;;;;;;;7.68;4.35;;;;;;;5.08;100.00;101918.53;6261555;28;20056;-80
2022/02/08 06:33:20;;;;;;;6.80;3.88;;;;;;;4.98;100.00;101925.59;6273404;28;20053;-80
2022/02/08 06:36:23;;;;;;;9.70;3.70;;;;;;;5.02;100.00;101919.47;6273631;28;20172;-80
2022/02/08 06:39:26;;;;;;;11.65;5.15;;;;;;;5.00;100.00;101921.25;6262576;28;20064;-80
2022/02/08 06:42:28;;;;;;;10.25;5.38;;;;;;;5.11;100.00;101922.84;6249397;28;20485;-79
2022/02/08 06:45:29;;;;;;;11.40;4.93;;;;;;;5.17;100.00;101922.75;6249891;28;20045;-79
2022/02/08 06:48:31;;;;;;;13.50;5.15;;;;;;;5.19;100.00;101921.03;6252756;28;20048;-81
2022/02/08 06:51:33;;;;;;;10.35;4.60;;;;;;;5.29;100.00;101933.91;6273791;28;20045;-79
2022/02/08 06:54:35;;;;;;;14.48;5.95;;;;;;;5.34;100.00;101949.50;6273859;28;20052;-78
2022/02/08 06:57:48;;;;;;;13.77;6.38;;;;;;;5.41;100.00;101953.75;6269438;28;20053;-82
2022/02/08 07:00:51;;;;;;;12.73;5.38;;;;;;;5.35;100.00;101951.22;6257346;28;20049;-82
2022/02/08 07:03:52;;;;;;;13.60;5.55;;;;;;;5.35;100.00;101959.03;6257246;28;20045;-82
2022/02/08 07:06:55;;;;;;;13.18;5.53;;;;;;;5.39;100.00;101949.44;6272299;28;20056;-81
2022/02/08 07:09:57;;;;;;;12.70;6.60;;;;;;;5.44;100.00;101963.25;6270837;28;20096;-80
2022/02/08 07:12:59;;;;;;;18.90;5.93;;;;;;;5.51;100.00;101950.16;6254062;28;20060;-81
2022/02/08 07:16:00;;;;;;;11.35;5.45;;;;;;;5.62;100.00;101951.75;6268673;28;20049;-81
2022/02/08 07:19:02;;;;;;;13.25;6.70;;;;;;;5.68;100.00;101956.84;6272904;28;20420;-81
2022/02/08 07:22:04;;;;;;;20.95;5.88;;;;;;;5.65;100.00;101957.78;6263688;28;20059;-79
2022/02/08 07:25:07;;;;;;;14.52;6.65;;;;;;;5.69;100.00;101953.41;6259985;28;20042;-80
2022/02/08 07:28:08;;;;;;;14.88;7.03;;;;;;;5.69;100.00;101945.56;6247628;28;20052;-81
2022/02/08 07:31:15;;;;;;;13.32;5.40;;;;;;;5.79;100.00;101941.94;6258361;28;20053;-81
2022/02/08 07:34:20;;;;;;;12.50;5.38;;;;;;;5.80;100.00;101944.53;6258582;28;20460;-79
2022/02/08 07:37:34;;;;;;;14.93;6.13;;;;;;;5.83;100.00;101923.63;6257591;28;20424;-81
2022/02/08 07:41:35;;;;;;;13.27;6.28;;;;;;;5.89;100.00;101921.78;6251652;28;20041;-81
2022/02/08 07:44:07;;;;;;;18.08;7.30;;;;;;;5.93;100.00;101920.91;6256276;28;20053;-81
2022/02/08 07:47:08;;;;;;;24.33;6.65;;;;;;;5.92;100.00;101927.00;6259788;28;20058;-82
2022/02/08 07:50:10;;;;;;;13.38;6.32;;;;;;;5.99;100.00;101919.03;6271937;28;20093;-82
2022/02/08 07:53:13;;;;;;;13.77;6.53;;;;;;;6.07;100.00;101934.59;6272148;28;20053;-82
2022/02/08 07:56:16;;;;;;;14.63;6.28;;;;;;;6.14;100.00;101922.34;6272344;28;20041;-81
2022/02/08 07:59:17;;;;;;;22.15;6.15;;;;;;;6.16;100.00;101933.59;6262215;28;20488;-78
2022/02/08 08:02:19;;;;;;;17.73;6.65;;;;;;;6.22;100.00;101923.94;6256273;28;20409;-80
2022/02/08 08:05:20;;;;;;;15.70;6.80;;;;;;;6.21;100.00;101918.72;6256761;28;20041;-80
2022/02/08 08:08:23;;;;;;;19.00;6.90;;;;;;;6.27;100.00;101913.41;6260352;28;20049;-80
2022/02/08 08:11:24;;;;;;;15.63;6.78;;;;;;;6.28;100.00;101918.59;6270441;28;20045;-80
2022/02/08 08:14:27;;;;;;;16.85;6.95;;;;;;;6.32;100.00;101920.28;6271430;28;20074;-81
2022/02/08 08:17:53;;;;;;;15.95;7.35;;;;;;;6.43;100.00;101911.38;6264856;28;20515;-79
2022/02/08 08:20:54;;;;;;;15.93;6.53;;;;;;;6.43;100.00;101904.41;6260027;28;20056;-80
2022/02/08 08:23:58;;;;;;;14.85;6.78;;;;;;;6.42;100.00;101914.91;6258470;28;20065;-80
2022/02/08 08:26:59;;;;;;;15.25;6.70;;;;;;;6.49;100.00;101919.09;6258519;28;20131;-82
2022/02/08 08:30:01;;;;;;;16.00;6.75;;;;;;;6.56;100.00;101913.75;6260408;28;20056;-81
2022/02/08 08:33:02;;;;;;;17.10;6.32;;;;;;;6.55;100.00;101914.66;6257122;28;20064;-84
2022/02/08 08:36:05;;;;;;;16.20;7.13;;;;;;;6.61;100.00;101914.53;6257297;28;20041;-83
2022/02/08 08:39:09;;;;;;;20.55;7.68;;;;;;;6.68;100.00;101919.66;6259261;28;20522;-85
2022/02/08 08:42:23;;;;;;;13.93;6.30;;;;;;;6.75;100.00;101921.25;6256766;28;20053;-84
2022/02/08 08:49:02;;;;;;;16.15;8.43;;;;;;;6.84;100.00;101932.38;6249173;28;20057;-84
2022/02/08 08:52:04;;;;;;;10.98;5.80;;;;;;;6.83;100.00;101927.19;6252272;28;20057;-86
2022/02/08 08:55:08;;;;;;;25.83;6.30;;;;;;;6.91;100.00;101935.75;6252337;28;20057;-87
2022/02/08 08:58:09;;;;;;;13.82;6.88;;;;;;;6.99;100.00;101943.44;6252628;28;20049;-87
2022/02/08 09:01:12;;;;;;;15.05;6.10;;;;;;;7.01;100.00;101932.06;6254176;28;20045;-84
2022/02/08 09:04:15;;;;;;;19.30;6.32;;;;;;;7.01;100.00;101934.69;6275247;28;20110;-87
2022/02/08 09:07:18;;;;;;;15.52;6.05;;;;;;;7.03;100.00;101937.25;6275942;28;20056;-85
2022/02/08 09:10:26;;;;;;;14.35;6.50;;;;;;;7.05;100.00;101938.97;6273914;28;20049;-81
2022/02/08 09:13:33;;;;;;;13.80;5.50;;;;;;;7.14;100.00;101924.00;6276805;28;20507;-83
2022/02/08 09:16:40;;;;;;;14.45;4.70;;;;;;;7.11;100.00;101917.94;6251535;28;20042;-83
2022/02/08 09:20:05;;;;;;;11.82;5.95;;;;;;;7.20;100.00;101929.94;6251761;28;20057;-84
2022/02/08 09:23:38;;;;;;;11.40;5.55;;;;;;;7.21;100.00;101939.50;6252084;28;20049;-82
2022/02/08 09:27:09;;;;;;;19.60;6.15;;;;;;;7.37;100.00;101938.31;6251834;28;20041;-82
2022/02/08 09:30:15;;;;;;;14.95;5.05;;;;;;;7.36;100.00;101927.91;6251662;28;20258;-81
2022/02/08 09:33:16;;;;;;;11.15;6.00;;;;;;;7.38;100.00;101928.72;6251369;28;20049;-80
2022/02/08 09:36:20;;;;;;;12.90;5.72;;;;;;;7.35;100.00;101928.78;6265675;28;20427;-85
2022/02/08 09:39:21;;;;;;;11.38;5.30;;;;;;;7.40;100.00;101920.81;6267390;28;20207;-79
2022/02/08 09:42:24;;;;;;;17.00;5.57;;;;;;;7.46;100.00;101918.09;6250507;28;20053;-82
2022/02/08 09:45:25;;;;;;;8.95;4.07;;;;;;;7.54;100.00;101911.81;6250973;28;20055;-81
2022/02/08 09:48:34;;;;;;;19.55;5.07;;;;;;;7.59;100.00;101914.31;6251040;28;20544;-83
2022/02/08 09:51:38;;;;;;;9.43;4.83;;;;;;;7.51;100.00;101911.00;6250234;28;20045;-84
2022/02/08 09:54:40;;;;;;;12.48;5.25;;;;;;;7.53;100.00;101928.38;6250449;28;20049;-80
2022/02/08 09:57:42;;;;;;;10.20;4.85;;;;;;;7.51;100.00;101927.56;6250834;28;20049;-76
2022/02/08 10:00:44;;;;;;;7.20;4.10;;;;;;;7.57;100.00;101931.78;6261920;28;20045;-83
2022/02/08 10:03:52;;;;;;;10.02;4.88;;;;;;;7.76;100.00;101948.78;6271974;28;20045;-80
2022/02/08 10:06:54;;;;;;;14.77;5.20;;;;;;;7.70;100.00;101935.84;6273106;28;20073;-80
2022/02/08 10:09:55;;;;;;;8.75;4.93;;;;;;;7.74;100.00;101944.50;6272055;28;20436;-80
2022/02/08 10:13:15;;;;;;;12.30;5.00;;;;;;;7.74;100.00;101944.50;6276684;28;20404;-83
2022/02/08 10:23:14;;;;;;;9.23;4.03;;;;;;;8.00;100.00;101970.09;6225790;28;20049;-80
2022/02/08 10:26:25;;;;;;;7.60;4.05;;;;;;;8.00;100.00;101970.09;6266283;28;20049;-81
2022/02/08 10:29:38;;;;;;;13.27;4.75;;;;;;;8.10;100.00;101956.75;6274328;28;20045;-79
2022/02/08 10:39:39;;;;;;;13.27;3.20;;;;;;;8.23;100.00;101957.31;6273793;28;20049;-79
2022/02/08 10:42:42;;;;;;;9.13;3.88;;;;;;;8.35;100.00;101945.66;6274164;28;20056;-82
2022/02/08 10:45:45;;;;;;;5.43;3.28;;;;;;;8.37;100.00;101938.69;6273982;28;20407;-83
2022/02/08 10:48:47;;;;;;;7.00;3.30;;;;;;;8.49;100.00;101946.22;6268392;28;20063;-80
2022/02/08 10:51:51;;;;;;;8.98;3.70;;;;;;;8.50;100.00;101950.56;6270460;28;20053;-78
2022/02/08 10:54:53;;;;;;;6.40;3.13;;;;;;;8.53;100.00;101950.47;6265884;28;20049;-77
2022/02/08 10:58:06;;;;;;;9.30;2.97;;;;;;;8.47;100.00;101957.66;6270816;28;20102;-80
2022/02/08 11:01:13;;;;;;;4.72;2.80;;;;;;;8.50;100.00;101955.81;6273420;28;20108;-79
2022/02/08 11:04:20;;;;;;;13.57;3.33;;;;;;;8.61;100.00;101966.88;6271846;28;20056;-78
2022/02/08 11:07:44;;;;;;;2.85;2.17;;;;;;;8.49;100.00;101947.97;6248859;28;20053;-82
2022/02/08 11:14:18;;;;;;;11.02;2.97;;;;;;;8.64;100.00;101945.84;6257263;28;20079;-82
2022/02/08 11:18:06;;;;;;;8.57;2.90;;;;;;;8.67;100.00;101957.97;6267988;28;20111;-79
2022/02/08 11:21:21;;;;;;;4.28;2.58;;;;;;;8.71;100.00;101949.16;6271156;28;20052;-79
2022/02/08 11:24:29;;;;;;;8.77;2.25;;;;;;;8.79;100.00;101956.81;6248471;28;20049;-78
2022/02/08 11:27:39;;;;;;;5.28;1.92;;;;;;;8.87;100.00;101957.47;6248563;28;20106;-78
2022/02/08 11:30:49;;;;;;;5.15;2.13;;;;;;;8.78;100.00;101955.97;6248113;28;20167;-77
2022/02/08 11:38:56;;;;;;;7.50;2.20;;;;;;;8.84;100.00;101950.53;6248364;28;20051;-78
2022/02/08 11:45:11;;;;;;;4.82;2.85;;;;;;;8.80;100.00;101953.28;6257053;28;20053;-78
2022/02/08 11:48:29;;;;;;;11.95;2.22;;;;;;;8.97;100.00;101958.09;6260047;28;20049;-80
2022/02/08 11:51:41;;;;;;;2.88;1.70;;;;;;;8.86;100.00;101950.53;6257029;28;20075;-80
2022/02/08 11:55:04;;;;;;;5.00;2.55;;;;;;;8.80;100.00;101955.91;6259117;28;20041;-80
2022/02/08 11:58:18;;;;;;;3.78;1.77;;;;;;;8.77;100.00;101956.88;6256019;28;20045;-80
2022/02/08 12:01:26;;;;;;;5.63;1.73;;;;;;;8.82;100.00;101959.38;6250412;28;20266;-85
2022/02/08 12:04:46;;;;;;;3.55;1.63;;;;;;;8.78;100.00;101955.97;6258315;28;20472;-83
2022/02/08 12:07:52;;;;;;;4.32;2.03;;;;;;;8.83;100.00;101951.44;6250836;28;20060;-81
2022/02/08 12:11:06;;;;;;;3.55;1.80;;;;;;;8.85;100.00;101954.03;6247957;28;20052;-81
2022/02/08 12:31:30;;;;;;;3.25;1.65;;;;;;;8.77;100.00;101950.78;6269309;28;20049;-78
2022/02/08 12:52:33;;;;;;;5.10;2.08;;;;;;;8.56;100.00;101947.78;6246979;28;20057;-80
2022/02/08 12:58:59;;;;;;;4.68;2.08;;;;;;;8.62;100.00;101947.63;6271691;28;20049;-80
2022/02/08 13:02:19;;;;;;;5.53;2.15;;;;;;;8.74;100.00;101951.69;6271754;28;20049;-80
2022/02/08 13:19:37;;;;;;;5.18;2.42;;;;;;;8.70;100.00;101957.91;6269199;28;20049;-78
2022/02/08 14:01:30;;;;;;;6.80;4.00;;;;;;;8.64;100.00;101960.72;6256451;28;20057;-78
2022/02/08 14:02:47;;;;;;;9.43;3.08;;;;;;;8.35;100.00;101984.97;6274770;28;20053;-79
2022/02/08 14:05:57;;;;;;;3.17;2.50;;;;;;;8.30;100.00;101985.06;6273210;28;20523;-81
2022/02/08 14:09:15;;;;;;;;;;;;;;;8.23;100.00;101978.28;6275472;28;20067;-80
2022/02/08 14:12:46;;;;;;;7.20;2.92;;;;;;;8.34;100.00;101978.88;6274287;28;20418;-81
2022/02/08 14:19:28;;;;;;;6.28;2.30;;;;;;;8.31;100.00;101978.97;6272418;28;20056;-80
2022/02/08 14:22:46;;;;;;;6.25;2.60;;;;;;;8.41;100.00;101979.63;6274376;28;20048;-79
2022/02/08 14:25:59;;;;;;;7.33;2.07;;;;;;;8.43;100.00;101982.19;6274516;28;20049;-80
2022/02/08 14:29:34;;;;;;;4.38;2.53;;;;;;;8.38;100.00;101993.66;6274197;28;20052;-81
2022/02/08 14:32:44;;;;;;;3.40;2.67;;;;;;;8.45;100.00;101985.63;6271413;28;20045;-79
2022/02/08 14:36:02;;;;;;;3.00;2.08;;;;;;;8.49;100.00;101982.03;6249377;28;20049;-79
2022/02/08 15:06:01;;;;;;;;;;;;;;;8.12;100.00;101999.44;6256492;28;21409;-78
2022/02/08 15:09:04;;;;;;;5.85;2.35;;;;;;;8.19;100.00;102007.19;6270435;28;19924;-77
2022/02/08 15:12:12;;;;;;;4.05;2.15;;;;;;;8.08;100.00;102005.69;6259008;28;20527;-80
2022/02/08 15:15:22;;;;;;;3.58;1.95;;;;;;;8.04;100.00;102008.38;6264935;28;20045;-79
2022/02/08 15:18:27;;;;;;;5.45;2.72;;;;;;;8.02;100.00;102016.28;6258894;28;20077;-79
2022/02/08 15:21:31;;;;;;;3.28;2.38;;;;;;;8.12;100.00;102009.94;6266894;28;20539;-80
2022/02/08 15:24:33;;;;;;;3.90;2.20;;;;;;;7.99;100.00;102016.31;6271509;28;20404;-81
2022/02/08 15:27:37;;;;;;;6.88;2.05;;;;;;;8.04;100.00;102017.13;6263729;28;20045;-78
2022/02/08 15:30:39;;;;;;;3.53;2.45;;;;;;;7.97;100.00;102010.28;6268831;28;20056;-78
2022/02/08 15:33:41;;;;;;;3.05;2.13;;;;;;;7.94;100.00;102026.03;6259661;28;20061;-77
2022/02/08 15:36:43;;;;;;;3.90;2.45;;;;;;;7.97;100.00;102018.13;6248383;28;20057;-77
2022/02/08 15:39:44;;;;;;;2.83;2.08;;;;;;;7.93;100.00;102028.69;6247555;28;20060;-81
2022/02/08 15:42:47;;;;;;;4.57;2.47;;;;;;;7.93;100.00;102018.22;6248073;28;20060;-78
2022/02/08 15:45:52;;;;;;;3.33;2.78;;;;;;;7.98;100.00;102025.09;6252302;28;20048;-78
2022/02/08 15:48:55;;;;;;;4.15;2.47;;;;;;;7.90;100.00;102040.09;6263011;28;20045;-80
2022/02/08 15:52:10;;;;;;;2.97;2.28;;;;;;;7.86;100.00;102034.09;6261120;28;20049;-76
2022/02/08 15:55:27;;;;;;;2.50;2.00;;;;;;;7.89;100.00;102041.00;6267243;28;20056;-79
2022/02/08 16:00:18;;;;;;;4.18;2.30;;;;;;;7.95;100.00;102033.03;6253141;28;20049;-77
2022/02/08 16:05:42;;;;;;;3.08;2.35;;;;;;;7.83;100.00;102038.50;6270153;28;20045;-79
2022/02/08 16:08:48;;;;;;;7.13;2.60;;;;;;;7.84;100.00;102048.94;6272052;28;20137;-77
2022/02/08 16:12:07;;;;;;;3.72;2.60;;;;;;;7.92;100.00;102051.41;6272083;28;20055;-79
2022/02/08 16:18:38;;;;;;;4.25;2.35;;;;;;;7.97;100.00;102052.16;6259145;28;20042;-78
2022/02/08 16:22:12;;;;;;;5.55;3.22;;;;;;;7.99;100.00;102044.25;6255267;28;20079;-78
2022/02/08 16:25:19;;;;;;;4.68;2.65;;;;;;;7.88;100.00;102052.38;6255261;28;20056;-80
2022/02/08 16:32:02;;;;;;;7.10;3.78;;;;;;;7.92;100.00;102050.53;6253898;28;20789;-78
2022/02/08 16:52:37;;;;;;;8.40;4.25;;;;;;;7.94;100.00;102064.44;6254148;28;20059;-81
2022/02/08 16:55:53;;;;;;;7.07;4.00;;;;;;;7.88;100.00;102058.44;6249232;28;20052;-82
2022/02/08 16:58:56;;;;;;;9.07;4.28;;;;;;;7.89;100.00;102072.41;6252323;28;20041;-80
2022/02/08 17:02:00;;;;;;;7.50;3.63;;;;;;;7.94;100.00;102061.84;6251910;28;20492;-81
2022/02/08 17:05:03;;;;;;;11.15;3.78;;;;;;;7.89;100.00;102067.16;6254341;28;20053;-81
2022/02/08 17:08:05;;;;;;;7.13;4.05;;;;;;;7.89;100.00;102078.50;6254912;28;20516;-80
2022/02/08 17:11:07;;;;;;;6.50;3.95;;;;;;;7.93;100.00;102073.19;6250934;28;20055;-81
2022/02/08 17:17:46;;;;;;;11.73;3.45;;;;;;;7.95;100.00;102076.63;6257563;28;20527;-84
2022/02/08 17:47:41;;;;;;;8.60;4.38;;;;;;;7.81;100.00;102093.50;6261499;28;20050;-78
2022/02/08 17:50:45;;;;;;;9.60;5.25;;;;;;;7.85;100.00;102102.13;6250827;28;20519;-83
2022/02/08 17:53:48;;;;;;;9.77;3.92;;;;;;;7.87;100.00;102116.06;6256400;28;20496;-84
2022/02/08 17:56:49;;;;;;;8.45;4.93;;;;;;;7.85;100.00;102117.84;6260943;28;20463;-80
2022/02/08 17:59:50;;;;;;;8.68;4.75;;;;;;;7.82;100.00;102117.94;6267817;28;20045;-81
2022/02/08 18:02:52;;;;;;;6.97;4.80;;;;;;;7.87;100.00;102124.78;6271451;28;20408;-81
2022/02/08 18:05:53;;;;;;;10.32;4.32;;;;;;;7.80;100.00;102130.16;6273201;28;20427;-81
2022/02/08 18:08:56;;;;;;;8.55;5.35;;;;;;;7.81;100.00;102124.03;6267965;28;20393;-81
2022/02/08 18:12:00;;;;;;;8.57;4.38;;;;;;;7.72;100.00;102117.25;6271591;28;20049;-80
2022/02/08 18:15:06;;;;;;;9.68;5.00;;;;;;;7.73;100.00;102115.50;6260365;28;20127;-81
2022/02/08 18:18:18;;;;;;;11.00;5.43;;;;;;;7.71;100.00;102122.50;6259680;28;20045;-80
2022/02/08 18:21:25;;;;;;;9.93;6.15;;;;;;;7.72;100.00;102117.25;6259882;28;20041;-82
2022/02/08 18:28:12;;;;;;;11.00;5.32;;;;;;;7.69;100.00;102132.13;6268478;28;20045;-86
2022/02/08 18:58:06;;;;;;;10.07;6.30;;;;;;;7.70;100.00;102136.47;6273490;28;20049;-85
2022/02/08 19:08:05;;;;;;;12.18;5.97;;;;;;;7.75;100.00;102142.47;6247135;28;20073;-88
2022/02/08 19:15:25;;;;;;;9.52;5.78;;;;;;;7.63;100.00;102148.81;6273751;28;20070;-87
2022/02/08 19:18:41;;;;;;;9.65;5.63;;;;;;;7.62;100.00;102141.84;6258517;28;20041;-87
2022/02/08 19:21:45;;;;;;;9.38;5.60;;;;;;;7.64;100.00;102150.53;6271661;28;20049;-87
2022/02/08 19:24:47;;;;;;;9.27;5.25;;;;;;;7.64;100.00;102147.94;6259355;28;20111;-86
2022/02/08 19:27:50;;;;;;;13.98;4.70;;;;;;;7.63;100.00;102146.22;6259648;28;20045;-86
2022/02/08 19:30:53;;;;;;;9.85;5.10;;;;;;;7.63;100.00;102146.22;6248837;28;20053;-88
2022/02/08 19:33:56;;;;;;;7.93;4.60;;;;;;;7.61;100.00;102146.22;6252683;28;20623;-90
2022/02/08 19:37:03;;;;;;;8.52;5.13;;;;;;;7.59;100.00;102144.53;6259204;28;20053;-90